sensor_id;sensor_type;location;lat;lon;timestamp;P1;durP1;ratioP1;P2;durP2;ratioP2
15412;SDS011;7805;49.554;7.632;2022-12-07T00:01:32;5.53;;;5.00;;
15412;SDS011;7805;49.554;7.632;2022-12-07T00:04:06;6.13;;;4.63;;
15412;SDS011;7805;49.554;7.632;2022-12-07T00:06:38;5.20;;;4.53;;
15412;SDS011;7805;49.554;7.632;2022-12-07T00:09:06;6.47;;;5.57;;
15412;SDS011;7805;49.554;7.632;2022-12-07T00:11:34;7.70;;;5.80;;
15412;SDS011;7805;49.554;7.632;2022-12-07T00:14:01;9.40;;;6.30;;
15412;SDS011;7805;49.554;7.632;2022-12-07T00:16:30;7.80;;;5.80;;
15412;SDS011;7805;49.554;7.632;2022-12-07T00:18:57;6.47;;;5.07;;
15412;SDS011;7805;49.554;7.632;2022-12-07T00:21:24;5.60;;;5.07;;
15412;SDS011;7805;49.554;7.632;2022-12-07T00:23:52;6.27;;;4.93;;
15412;SDS011;7805;49.554;7.632;2022-12-07T00:28:47;8.03;;;5.57;;
15412;SDS011;7805;49.554;7.632;2022-12-07T00:31:15;7.77;;;6.43;;
15412;SDS011;7805;49.554;7.632;2022-12-07T00:33:42;7.03;;;5.43;;
15412;SDS011;7805;49.554;7.632;2022-12-07T00:36:09;6.87;;;5.93;;
15412;SDS011;7805;49.554;7.632;2022-12-07T00:38:38;11.40;;;6.00;;
15412;SDS011;7805;49.554;7.632;2022-12-07T00:41:05;7.37;;;5.57;;
15412;SDS011;7805;49.554;7.632;2022-12-07T00:43:38;8.03;;;6.53;;
15412;SDS011;7805;49.554;7.632;2022-12-07T00:46:04;7.00;;;5.90;;
15412;SDS011;7805;49.554;7.632;2022-12-07T00:48:30;7.73;;;5.63;;
15412;SDS011;7805;49.554;7.632;2022-12-07T00:50:56;7.07;;;5.77;;
15412;SDS011;7805;49.554;7.632;2022-12-07T00:53:22;7.87;;;5.87;;
15412;SDS011;7805;49.554;7.632;2022-12-07T00:55:47;7.43;;;5.47;;
15412;SDS011;7805;49.554;7.632;2022-12-07T00:58:13;7.53;;;5.67;;
15412;SDS011;7805;49.554;7.632;2022-12-07T01:00:40;8.37;;;6.43;;
15412;SDS011;7805;49.554;7.632;2022-12-07T01:03:07;8.90;;;6.60;;
15412;SDS011;7805;49.554;7.632;2022-12-07T01:05:35;9.60;;;6.80;;
15412;SDS011;7805;49.554;7.632;2022-12-07T01:08:00;8.73;;;7.33;;
15412;SDS011;7805;49.554;7.632;2022-12-07T01:10:26;10.33;;;7.17;;
15412;SDS011;7805;49.554;7.632;2022-12-07T01:12:52;11.27;;;8.10;;
15412;SDS011;7805;49.554;7.632;2022-12-07T01:15:18;9.47;;;7.13;;
15412;SDS011;7805;49.554;7.632;2022-12-07T01:17:44;8.83;;;5.90;;
15412;SDS011;7805;49.554;7.632;2022-12-07T01:20:09;8.47;;;6.57;;
15412;SDS011;7805;49.554;7.632;2022-12-07T01:22:39;10.67;;;6.10;;
15412;SDS011;7805;49.554;7.632;2022-12-07T01:25:06;8.27;;;5.57;;
15412;SDS011;7805;49.554;7.632;2022-12-07T01:27:33;6.10;;;5.27;;
15412;SDS011;7805;49.554;7.632;2022-12-07T01:30:00;5.63;;;5.00;;
15412;SDS011;7805;49.554;7.632;2022-12-07T01:32:25;11.87;;;7.47;;
15412;SDS011;7805;49.554;7.632;2022-12-07T01:34:51;12.57;;;8.73;;
15412;SDS011;7805;49.554;7.632;2022-12-07T01:37:17;15.97;;;10.37;;
15412;SDS011;7805;49.554;7.632;2022-12-07T01:39:42;13.53;;;10.00;;
15412;SDS011;7805;49.554;7.632;2022-12-07T01:42:11;11.63;;;7.97;;
15412;SDS011;7805;49.554;7.632;2022-12-07T01:47:41;45.87;;;25.93;;
15412;SDS011;7805;49.554;7.632;2022-12-07T01:50:20;30.47;;;17.73;;
15412;SDS011;7805;49.554;7.632;2022-12-07T01:52:49;19.20;;;12.37;;
15412;SDS011;7805;49.554;7.632;2022-12-07T01:55:17;23.03;;;13.10;;
15412;SDS011;7805;49.554;7.632;2022-12-07T01:57:44;23.93;;;13.87;;
15412;SDS011;7805;49.554;7.632;2022-12-07T02:00:13;30.03;;;16.73;;
15412;SDS011;7805;49.554;7.632;2022-12-07T02:02:44;27.93;;;17.23;;
15412;SDS011;7805;49.554;7.632;2022-12-07T02:05:14;21.17;;;12.60;;
15412;SDS011;7805;49.554;7.632;2022-12-07T02:07:41;15.77;;;10.03;;
15412;SDS011;7805;49.554;7.632;2022-12-07T02:12:44;12.03;;;9.20;;
15412;SDS011;7805;49.554;7.632;2022-12-07T02:15:12;10.80;;;7.20;;
15412;SDS011;7805;49.554;7.632;2022-12-07T02:25:51;7.90;;;6.63;;
15412;SDS011;7805;49.554;7.632;2022-12-07T02:30:47;9.03;;;5.90;;
15412;SDS011;7805;49.554;7.632;2022-12-07T02:33:19;6.70;;;5.73;;
15412;SDS011;7805;49.554;7.632;2022-12-07T02:35:59;9.17;;;6.93;;
15412;SDS011;7805;49.554;7.632;2022-12-07T02:38:42;9.13;;;6.60;;
15412;SDS011;7805;49.554;7.632;2022-12-07T02:43:59;9.27;;;7.47;;
15412;SDS011;7805;49.554;7.632;2022-12-07T02:46:28;12.40;;;7.73;;
15412;SDS011;7805;49.554;7.632;2022-12-07T02:48:57;11.63;;;8.60;;
15412;SDS011;7805;49.554;7.632;2022-12-07T02:51:24;11.17;;;7.53;;
15412;SDS011;7805;49.554;7.632;2022-12-07T02:53:50;8.93;;;7.47;;
15412;SDS011;7805;49.554;7.632;2022-12-07T02:59:29;8.63;;;6.40;;
15412;SDS011;7805;49.554;7.632;2022-12-07T03:16:00;8.83;;;5.87;;
15412;SDS011;7805;49.554;7.632;2022-12-07T03:19:02;9.20;;;6.97;;
15412;SDS011;7805;49.554;7.632;2022-12-07T03:21:29;7.97;;;6.67;;
15412;SDS011;7805;49.554;7.632;2022-12-07T03:23:58;7.60;;;6.43;;
15412;SDS011;7805;49.554;7.632;2022-12-07T03:26:30;8.60;;;6.40;;
15412;SDS011;7805;49.554;7.632;2022-12-07T03:29:00;9.70;;;7.07;;
15412;SDS011;7805;49.554;7.632;2022-12-07T03:31:32;11.90;;;7.17;;
15412;SDS011;7805;49.554;7.632;2022-12-07T03:34:03;8.33;;;6.73;;
15412;SDS011;7805;49.554;7.632;2022-12-07T03:36:59;9.40;;;7.00;;
15412;SDS011;7805;49.554;7.632;2022-12-07T03:39:30;9.67;;;7.13;;
15412;SDS011;7805;49.554;7.632;2022-12-07T03:42:11;9.43;;;6.73;;
15412;SDS011;7805;49.554;7.632;2022-12-07T03:44:37;10.07;;;7.33;;
15412;SDS011;7805;49.554;7.632;2022-12-07T03:49:51;11.13;;;7.93;;
15412;SDS011;7805;49.554;7.632;2022-12-07T03:52:53;8.70;;;6.70;;
15412;SDS011;7805;49.554;7.632;2022-12-07T03:55:52;8.77;;;6.40;;
15412;SDS011;7805;49.554;7.632;2022-12-07T03:58:20;8.93;;;6.47;;
15412;SDS011;7805;49.554;7.632;2022-12-07T04:00:47;9.20;;;7.03;;
15412;SDS011;7805;49.554;7.632;2022-12-07T04:03:14;8.53;;;6.47;;
15412;SDS011;7805;49.554;7.632;2022-12-07T04:05:39;11.27;;;6.53;;
15412;SDS011;7805;49.554;7.632;2022-12-07T04:08:06;8.23;;;6.67;;
15412;SDS011;7805;49.554;7.632;2022-12-07T04:10:32;9.63;;;6.97;;
15412;SDS011;7805;49.554;7.632;2022-12-07T04:12:58;8.40;;;6.60;;
15412;SDS011;7805;49.554;7.632;2022-12-07T04:15:23;8.53;;;6.90;;
15412;SDS011;7805;49.554;7.632;2022-12-07T04:17:49;9.63;;;6.87;;
15412;SDS011;7805;49.554;7.632;2022-12-07T04:20:15;9.33;;;6.87;;
15412;SDS011;7805;49.554;7.632;2022-12-07T04:22:41;11.27;;;7.23;;
15412;SDS011;7805;49.554;7.632;2022-12-07T04:25:07;11.30;;;7.97;;
15412;SDS011;7805;49.554;7.632;2022-12-07T04:27:33;11.27;;;7.47;;
15412;SDS011;7805;49.554;7.632;2022-12-07T04:29:59;9.50;;;7.33;;
15412;SDS011;7805;49.554;7.632;2022-12-07T04:32:25;7.60;;;6.50;;
15412;SDS011;7805;49.554;7.632;2022-12-07T04:34:50;11.87;;;7.70;;
15412;SDS011;7805;49.554;7.632;2022-12-07T04:37:16;11.47;;;7.87;;
15412;SDS011;7805;49.554;7.632;2022-12-07T04:39:42;11.73;;;8.57;;
15412;SDS011;7805;49.554;7.632;2022-12-07T04:42:09;9.83;;;7.10;;
15412;SDS011;7805;49.554;7.632;2022-12-07T04:44:35;10.23;;;8.00;;
15412;SDS011;7805;49.554;7.632;2022-12-07T04:47:01;13.57;;;7.60;;
15412;SDS011;7805;49.554;7.632;2022-12-07T04:49:27;10.57;;;7.90;;
15412;SDS011;7805;49.554;7.632;2022-12-07T04:51:52;13.10;;;8.50;;
15412;SDS011;7805;49.554;7.632;2022-12-07T04:54:18;11.13;;;7.67;;
15412;SDS011;7805;49.554;7.632;2022-12-07T04:56:44;10.00;;;7.80;;
15412;SDS011;7805;49.554;7.632;2022-12-07T04:59:13;10.77;;;8.43;;
15412;SDS011;7805;49.554;7.632;2022-12-07T05:01:40;10.57;;;7.97;;
15412;SDS011;7805;49.554;7.632;2022-12-07T05:04:06;10.33;;;7.73;;
15412;SDS011;7805;49.554;7.632;2022-12-07T05:06:32;10.90;;;7.97;;
15412;SDS011;7805;49.554;7.632;2022-12-07T05:08:58;9.33;;;7.40;;
15412;SDS011;7805;49.554;7.632;2022-12-07T05:11:24;9.57;;;7.60;;
15412;SDS011;7805;49.554;7.632;2022-12-07T05:16:44;11.93;;;7.97;;
15412;SDS011;7805;49.554;7.632;2022-12-07T05:19:11;13.57;;;8.73;;
15412;SDS011;7805;49.554;7.632;2022-12-07T05:21:37;11.93;;;8.40;;
15412;SDS011;7805;49.554;7.632;2022-12-07T05:24:04;10.60;;;8.63;;
15412;SDS011;7805;49.554;7.632;2022-12-07T05:26:30;11.67;;;8.60;;
15412;SDS011;7805;49.554;7.632;2022-12-07T05:28:56;12.63;;;9.10;;
15412;SDS011;7805;49.554;7.632;2022-12-07T05:31:22;15.07;;;9.60;;
15412;SDS011;7805;49.554;7.632;2022-12-07T05:33:49;19.07;;;11.20;;
15412;SDS011;7805;49.554;7.632;2022-12-07T05:36:15;40.10;;;29.57;;
15412;SDS011;7805;49.554;7.632;2022-12-07T05:38:40;52.57;;;28.07;;
15412;SDS011;7805;49.554;7.632;2022-12-07T05:41:06;21.10;;;13.73;;
15412;SDS011;7805;49.554;7.632;2022-12-07T05:43:53;69.30;;;48.97;;
15412;SDS011;7805;49.554;7.632;2022-12-07T05:46:18;20.70;;;14.17;;
15412;SDS011;7805;49.554;7.632;2022-12-07T05:48:44;19.27;;;13.50;;
15412;SDS011;7805;49.554;7.632;2022-12-07T05:51:10;15.80;;;11.73;;
15412;SDS011;7805;49.554;7.632;2022-12-07T05:53:35;16.47;;;11.60;;
15412;SDS011;7805;49.554;7.632;2022-12-07T05:56:01;16.67;;;10.90;;
15412;SDS011;7805;49.554;7.632;2022-12-07T05:58:26;15.27;;;10.70;;
15412;SDS011;7805;49.554;7.632;2022-12-07T06:01:11;15.00;;;10.30;;
15412;SDS011;7805;49.554;7.632;2022-12-07T06:03:36;13.83;;;9.23;;
15412;SDS011;7805;49.554;7.632;2022-12-07T06:06:02;13.70;;;9.57;;
15412;SDS011;7805;49.554;7.632;2022-12-07T06:08:27;12.77;;;8.80;;
15412;SDS011;7805;49.554;7.632;2022-12-07T06:10:53;13.43;;;8.87;;
15412;SDS011;7805;49.554;7.632;2022-12-07T06:13:38;12.57;;;9.43;;
15412;SDS011;7805;49.554;7.632;2022-12-07T06:16:04;12.80;;;8.70;;
15412;SDS011;7805;49.554;7.632;2022-12-07T06:18:30;10.73;;;8.37;;
15412;SDS011;7805;49.554;7.632;2022-12-07T06:20:55;12.30;;;9.90;;
15412;SDS011;7805;49.554;7.632;2022-12-07T06:23:21;14.07;;;9.83;;
15412;SDS011;7805;49.554;7.632;2022-12-07T06:25:47;13.80;;;9.97;;
15412;SDS011;7805;49.554;7.632;2022-12-07T06:28:12;11.87;;;9.33;;
15412;SDS011;7805;49.554;7.632;2022-12-07T06:30:38;13.97;;;9.63;;
15412;SDS011;7805;49.554;7.632;2022-12-07T06:33:03;15.15;;;11.55;;
15412;SDS011;7805;49.554;7.632;2022-12-07T06:35:29;16.70;;;11.77;;
15412;SDS011;7805;49.554;7.632;2022-12-07T06:37:56;16.17;;;12.33;;
15412;SDS011;7805;49.554;7.632;2022-12-07T06:40:22;16.67;;;11.60;;
15412;SDS011;7805;49.554;7.632;2022-12-07T06:42:47;15.10;;;11.50;;
15412;SDS011;7805;49.554;7.632;2022-12-07T06:45:13;17.70;;;12.10;;
15412;SDS011;7805;49.554;7.632;2022-12-07T06:47:39;15.80;;;11.50;;
15412;SDS011;7805;49.554;7.632;2022-12-07T06:50:04;18.27;;;12.57;;
15412;SDS011;7805;49.554;7.632;2022-12-07T06:52:32;19.37;;;13.00;;
15412;SDS011;7805;49.554;7.632;2022-12-07T06:54:58;19.67;;;14.77;;
15412;SDS011;7805;49.554;7.632;2022-12-07T06:57:24;21.40;;;15.47;;
15412;SDS011;7805;49.554;7.632;2022-12-07T06:59:50;33.37;;;21.60;;
15412;SDS011;7805;49.554;7.632;2022-12-07T07:02:15;25.50;;;20.27;;
15412;SDS011;7805;49.554;7.632;2022-12-07T07:04:41;33.87;;;23.57;;
15412;SDS011;7805;49.554;7.632;2022-12-07T07:07:07;23.23;;;17.63;;
15412;SDS011;7805;49.554;7.632;2022-12-07T07:09:32;24.40;;;17.30;;
15412;SDS011;7805;49.554;7.632;2022-12-07T07:11:58;25.93;;;17.27;;
15412;SDS011;7805;49.554;7.632;2022-12-07T07:14:24;21.70;;;15.97;;
15412;SDS011;7805;49.554;7.632;2022-12-07T07:16:49;22.13;;;16.00;;
15412;SDS011;7805;49.554;7.632;2022-12-07T07:19:15;19.47;;;16.07;;
15412;SDS011;7805;49.554;7.632;2022-12-07T07:21:40;25.53;;;18.10;;
15412;SDS011;7805;49.554;7.632;2022-12-07T07:24:06;22.70;;;16.90;;
15412;SDS011;7805;49.554;7.632;2022-12-07T07:26:32;19.77;;;15.43;;
15412;SDS011;7805;49.554;7.632;2022-12-07T07:28:57;18.77;;;14.73;;
15412;SDS011;7805;49.554;7.632;2022-12-07T07:31:23;18.70;;;13.57;;
15412;SDS011;7805;49.554;7.632;2022-12-07T07:33:48;16.33;;;13.20;;
15412;SDS011;7805;49.554;7.632;2022-12-07T07:36:14;19.53;;;16.50;;
15412;SDS011;7805;49.554;7.632;2022-12-07T07:38:39;20.17;;;15.00;;
15412;SDS011;7805;49.554;7.632;2022-12-07T07:41:05;18.23;;;13.90;;
15412;SDS011;7805;49.554;7.632;2022-12-07T07:43:30;22.77;;;14.43;;
15412;SDS011;7805;49.554;7.632;2022-12-07T07:45:57;18.57;;;13.80;;
15412;SDS011;7805;49.554;7.632;2022-12-07T07:48:23;21.80;;;15.67;;
15412;SDS011;7805;49.554;7.632;2022-12-07T07:50:50;20.87;;;13.90;;
15412;SDS011;7805;49.554;7.632;2022-12-07T07:53:15;18.83;;;13.90;;
15412;SDS011;7805;49.554;7.632;2022-12-07T07:55:41;17.37;;;12.40;;
15412;SDS011;7805;49.554;7.632;2022-12-07T07:58:14;14.87;;;11.87;;
15412;SDS011;7805;49.554;7.632;2022-12-07T08:00:40;15.63;;;11.50;;
15412;SDS011;7805;49.554;7.632;2022-12-07T08:03:05;15.07;;;12.03;;
15412;SDS011;7805;49.554;7.632;2022-12-07T08:05:31;14.77;;;11.27;;
15412;SDS011;7805;49.554;7.632;2022-12-07T08:07:57;16.50;;;12.83;;
15412;SDS011;7805;49.554;7.632;2022-12-07T08:10:22;16.83;;;12.13;;
15412;SDS011;7805;49.554;7.632;2022-12-07T08:12:48;19.93;;;11.97;;
15412;SDS011;7805;49.554;7.632;2022-12-07T08:15:32;18.10;;;13.23;;
15412;SDS011;7805;49.554;7.632;2022-12-07T08:17:58;16.00;;;12.60;;
15412;SDS011;7805;49.554;7.632;2022-12-07T08:20:23;16.27;;;12.03;;
15412;SDS011;7805;49.554;7.632;2022-12-07T08:22:49;18.13;;;13.23;;
15412;SDS011;7805;49.554;7.632;2022-12-07T08:25:15;17.20;;;12.77;;
15412;SDS011;7805;49.554;7.632;2022-12-07T08:27:40;14.80;;;10.70;;
15412;SDS011;7805;49.554;7.632;2022-12-07T08:30:07;14.90;;;13.07;;
15412;SDS011;7805;49.554;7.632;2022-12-07T08:32:33;18.87;;;14.60;;
15412;SDS011;7805;49.554;7.632;2022-12-07T08:34:58;14.40;;;11.87;;
15412;SDS011;7805;49.554;7.632;2022-12-07T08:37:24;16.47;;;12.33;;
15412;SDS011;7805;49.554;7.632;2022-12-07T08:39:49;20.63;;;12.87;;
15412;SDS011;7805;49.554;7.632;2022-12-07T08:42:15;17.43;;;11.97;;
15412;SDS011;7805;49.554;7.632;2022-12-07T08:44:40;14.50;;;11.03;;
15412;SDS011;7805;49.554;7.632;2022-12-07T08:47:06;25.03;;;16.60;;
15412;SDS011;7805;49.554;7.632;2022-12-07T08:49:35;26.30;;;17.70;;
15412;SDS011;7805;49.554;7.632;2022-12-07T08:52:04;26.70;;;16.57;;
15412;SDS011;7805;49.554;7.632;2022-12-07T08:54:30;21.20;;;14.60;;
15412;SDS011;7805;49.554;7.632;2022-12-07T08:56:58;22.17;;;13.83;;
15412;SDS011;7805;49.554;7.632;2022-12-07T08:59:23;20.47;;;14.10;;
15412;SDS011;7805;49.554;7.632;2022-12-07T09:01:49;31.53;;;17.63;;
15412;SDS011;7805;49.554;7.632;2022-12-07T09:04:15;28.60;;;20.30;;
15412;SDS011;7805;49.554;7.632;2022-12-07T09:06:41;70.63;;;49.03;;
15412;SDS011;7805;49.554;7.632;2022-12-07T09:09:06;19.57;;;14.53;;
15412;SDS011;7805;49.554;7.632;2022-12-07T09:11:34;17.10;;;12.33;;
15412;SDS011;7805;49.554;7.632;2022-12-07T09:13:59;14.67;;;12.70;;
15412;SDS011;7805;49.554;7.632;2022-12-07T09:16:25;12.17;;;10.40;;
15412;SDS011;7805;49.554;7.632;2022-12-07T09:18:50;12.17;;;10.83;;
15412;SDS011;7805;49.554;7.632;2022-12-07T09:21:16;14.43;;;12.77;;
15412;SDS011;7805;49.554;7.632;2022-12-07T09:23:42;12.53;;;10.83;;
15412;SDS011;7805;49.554;7.632;2022-12-07T09:26:07;12.20;;;10.53;;
15412;SDS011;7805;49.554;7.632;2022-12-07T09:28:33;10.67;;;8.70;;
15412;SDS011;7805;49.554;7.632;2022-12-07T09:30:59;15.40;;;11.20;;
15412;SDS011;7805;49.554;7.632;2022-12-07T09:33:25;13.67;;;11.43;;
15412;SDS011;7805;49.554;7.632;2022-12-07T09:35:51;12.20;;;8.40;;
15412;SDS011;7805;49.554;7.632;2022-12-07T09:38:17;9.33;;;7.33;;
15412;SDS011;7805;49.554;7.632;2022-12-07T09:40:44;9.60;;;8.17;;
15412;SDS011;7805;49.554;7.632;2022-12-07T09:43:17;9.77;;;7.47;;
15412;SDS011;7805;49.554;7.632;2022-12-07T09:45:45;10.97;;;9.07;;
15412;SDS011;7805;49.554;7.632;2022-12-07T09:48:15;9.33;;;8.33;;
15412;SDS011;7805;49.554;7.632;2022-12-07T09:50:44;5.90;;;5.13;;
15412;SDS011;7805;49.554;7.632;2022-12-07T09:53:30;7.27;;;6.30;;
15412;SDS011;7805;49.554;7.632;2022-12-07T09:55:59;8.17;;;6.83;;
15412;SDS011;7805;49.554;7.632;2022-12-07T09:58:27;6.17;;;4.27;;
15412;SDS011;7805;49.554;7.632;2022-12-07T10:01:05;6.93;;;5.90;;
15412;SDS011;7805;49.554;7.632;2022-12-07T10:03:35;10.10;;;7.47;;
15412;SDS011;7805;49.554;7.632;2022-12-07T10:06:03;5.07;;;4.57;;
15412;SDS011;7805;49.554;7.632;2022-12-07T10:08:30;6.60;;;6.00;;
15412;SDS011;7805;49.554;7.632;2022-12-07T10:10:56;6.27;;;4.77;;
15412;SDS011;7805;49.554;7.632;2022-12-07T10:13:33;5.97;;;5.17;;
15412;SDS011;7805;49.554;7.632;2022-12-07T10:16:00;9.17;;;7.87;;
15412;SDS011;7805;49.554;7.632;2022-12-07T10:23:33;10.40;;;8.00;;
15412;SDS011;7805;49.554;7.632;2022-12-07T10:26:00;6.50;;;5.83;;
15412;SDS011;7805;49.554;7.632;2022-12-07T10:28:46;7.70;;;5.67;;
15412;SDS011;7805;49.554;7.632;2022-12-07T10:31:17;4.83;;;3.97;;
15412;SDS011;7805;49.554;7.632;2022-12-07T10:33:49;4.77;;;4.00;;
15412;SDS011;7805;49.554;7.632;2022-12-07T10:36:18;4.70;;;3.70;;
15412;SDS011;7805;49.554;7.632;2022-12-07T10:38:50;5.13;;;4.20;;
15412;SDS011;7805;49.554;7.632;2022-12-07T10:41:18;5.03;;;4.30;;
15412;SDS011;7805;49.554;7.632;2022-12-07T10:43:52;5.50;;;4.57;;
15412;SDS011;7805;49.554;7.632;2022-12-07T10:48:59;7.03;;;4.43;;
15412;SDS011;7805;49.554;7.632;2022-12-07T11:02:20;6.23;;;4.60;;
15412;SDS011;7805;49.554;7.632;2022-12-07T11:05:16;5.60;;;4.23;;
15412;SDS011;7805;49.554;7.632;2022-12-07T11:07:59;7.83;;;4.70;;
15412;SDS011;7805;49.554;7.632;2022-12-07T11:10:49;6.80;;;4.83;;
15412;SDS011;7805;49.554;7.632;2022-12-07T11:13:22;7.07;;;4.47;;
15412;SDS011;7805;49.554;7.632;2022-12-07T11:21:45;6.70;;;4.83;;
15412;SDS011;7805;49.554;7.632;2022-12-07T11:38:16;13.33;;;9.50;;
15412;SDS011;7805;49.554;7.632;2022-12-07T11:40:45;12.77;;;8.73;;
15412;SDS011;7805;49.554;7.632;2022-12-07T11:45:42;11.13;;;8.50;;
15412;SDS011;7805;49.554;7.632;2022-12-07T11:51:10;11.13;;;6.60;;
15412;SDS011;7805;49.554;7.632;2022-12-07T11:56:50;11.47;;;8.33;;
15412;SDS011;7805;49.554;7.632;2022-12-07T12:07:21;12.70;;;9.60;;
15412;SDS011;7805;49.554;7.632;2022-12-07T12:09:53;11.30;;;8.53;;
15412;SDS011;7805;49.554;7.632;2022-12-07T12:20:39;10.83;;;7.47;;
15412;SDS011;7805;49.554;7.632;2022-12-07T12:25:39;10.67;;;7.50;;
15412;SDS011;7805;49.554;7.632;2022-12-07T12:28:28;10.87;;;7.43;;
15412;SDS011;7805;49.554;7.632;2022-12-07T12:32:03;8.23;;;6.50;;
15412;SDS011;7805;49.554;7.632;2022-12-07T12:33:56;9.53;;;6.43;;
15412;SDS011;7805;49.554;7.632;2022-12-07T12:36:25;9.73;;;6.50;;
15412;SDS011;7805;49.554;7.632;2022-12-07T12:46:57;9.90;;;7.17;;
15412;SDS011;7805;49.554;7.632;2022-12-07T12:49:32;10.53;;;7.33;;
15412;SDS011;7805;49.554;7.632;2022-12-07T12:54:38;11.20;;;7.37;;
15412;SDS011;7805;49.554;7.632;2022-12-07T12:57:30;9.30;;;7.40;;
15412;SDS011;7805;49.554;7.632;2022-12-07T13:02:29;8.77;;;5.97;;
15412;SDS011;7805;49.554;7.632;2022-12-07T13:10:42;9.60;;;6.90;;
15412;SDS011;7805;49.554;7.632;2022-12-07T13:26:06;8.47;;;6.30;;
15412;SDS011;7805;49.554;7.632;2022-12-07T13:28:49;9.43;;;6.70;;
15412;SDS011;7805;49.554;7.632;2022-12-07T13:33:54;7.20;;;5.77;;
15412;SDS011;7805;49.554;7.632;2022-12-07T13:36:30;8.47;;;5.93;;
15412;SDS011;7805;49.554;7.632;2022-12-07T13:39:20;6.93;;;5.20;;
15412;SDS011;7805;49.554;7.632;2022-12-07T13:41:58;6.03;;;4.80;;
15412;SDS011;7805;49.554;7.632;2022-12-07T13:44:26;8.97;;;5.70;;
15412;SDS011;7805;49.554;7.632;2022-12-07T13:49:54;4.57;;;3.67;;
15412;SDS011;7805;49.554;7.632;2022-12-07T13:52:32;4.17;;;3.77;;
15412;SDS011;7805;49.554;7.632;2022-12-07T13:55:16;5.00;;;3.17;;
15412;SDS011;7805;49.554;7.632;2022-12-07T13:57:42;3.20;;;2.80;;
15412;SDS011;7805;49.554;7.632;2022-12-07T14:00:18;5.07;;;3.67;;
15412;SDS011;7805;49.554;7.632;2022-12-07T14:02:56;4.73;;;3.20;;
15412;SDS011;7805;49.554;7.632;2022-12-07T14:13:27;6.10;;;3.77;;
15412;SDS011;7805;49.554;7.632;2022-12-07T14:15:55;2.23;;;2.03;;
15412;SDS011;7805;49.554;7.632;2022-12-07T14:18:27;4.00;;;3.37;;
15412;SDS011;7805;49.554;7.632;2022-12-07T14:21:04;9.80;;;2.23;;
15412;SDS011;7805;49.554;7.632;2022-12-07T14:23:41;4.17;;;2.47;;
15412;SDS011;7805;49.554;7.632;2022-12-07T14:26:11;2.07;;;1.87;;
15412;SDS011;7805;49.554;7.632;2022-12-07T14:28:38;2.93;;;1.90;;
15412;SDS011;7805;49.554;7.632;2022-12-07T14:31:08;2.37;;;1.73;;
15412;SDS011;7805;49.554;7.632;2022-12-07T14:33:38;2.43;;;2.07;;
15412;SDS011;7805;49.554;7.632;2022-12-07T14:36:05;2.63;;;1.93;;
15412;SDS011;7805;49.554;7.632;2022-12-07T14:38:30;2.90;;;1.83;;
15412;SDS011;7805;49.554;7.632;2022-12-07T14:40:56;3.70;;;3.40;;
15412;SDS011;7805;49.554;7.632;2022-12-07T14:43:44;4.07;;;2.30;;
15412;SDS011;7805;49.554;7.632;2022-12-07T14:46:10;1.97;;;1.87;;
15412;SDS011;7805;49.554;7.632;2022-12-07T14:48:36;4.57;;;2.60;;
15412;SDS011;7805;49.554;7.632;2022-12-07T14:51:01;2.80;;;2.50;;
15412;SDS011;7805;49.554;7.632;2022-12-07T14:53:29;2.87;;;2.10;;
15412;SDS011;7805;49.554;7.632;2022-12-07T14:56:01;3.73;;;2.17;;
15412;SDS011;7805;49.554;7.632;2022-12-07T14:58:30;4.63;;;2.20;;
15412;SDS011;7805;49.554;7.632;2022-12-07T15:00:56;2.63;;;2.43;;
15412;SDS011;7805;49.554;7.632;2022-12-07T15:03:21;2.63;;;1.87;;
15412;SDS011;7805;49.554;7.632;2022-12-07T15:05:47;4.00;;;2.50;;
15412;SDS011;7805;49.554;7.632;2022-12-07T15:08:13;3.40;;;2.60;;
15412;SDS011;7805;49.554;7.632;2022-12-07T15:10:38;12.23;;;3.23;;
15412;SDS011;7805;49.554;7.632;2022-12-07T15:13:05;6.50;;;5.83;;
15412;SDS011;7805;49.554;7.632;2022-12-07T15:15:50;4.23;;;3.23;;
15412;SDS011;7805;49.554;7.632;2022-12-07T15:18:16;19.40;;;13.63;;
15412;SDS011;7805;49.554;7.632;2022-12-07T15:20:43;25.53;;;22.67;;
15412;SDS011;7805;49.554;7.632;2022-12-07T15:23:10;10.20;;;8.57;;
15412;SDS011;7805;49.554;7.632;2022-12-07T15:25:36;9.80;;;6.23;;
15412;SDS011;7805;49.554;7.632;2022-12-07T15:28:05;7.00;;;4.63;;
15412;SDS011;7805;49.554;7.632;2022-12-07T15:30:30;8.97;;;4.77;;
15412;SDS011;7805;49.554;7.632;2022-12-07T15:32:56;6.30;;;4.30;;
15412;SDS011;7805;49.554;7.632;2022-12-07T15:35:22;7.03;;;5.87;;
15412;SDS011;7805;49.554;7.632;2022-12-07T15:37:47;6.83;;;4.70;;
15412;SDS011;7805;49.554;7.632;2022-12-07T15:40:13;5.53;;;4.40;;
15412;SDS011;7805;49.554;7.632;2022-12-07T15:42:39;6.77;;;5.10;;
15412;SDS011;7805;49.554;7.632;2022-12-07T15:45:06;7.47;;;4.90;;
15412;SDS011;7805;49.554;7.632;2022-12-07T15:47:37;6.23;;;4.37;;
15412;SDS011;7805;49.554;7.632;2022-12-07T15:50:05;9.50;;;4.80;;
15412;SDS011;7805;49.554;7.632;2022-12-07T15:52:33;6.67;;;5.37;;
15412;SDS011;7805;49.554;7.632;2022-12-07T15:54:58;6.43;;;5.00;;
15412;SDS011;7805;49.554;7.632;2022-12-07T15:57:25;7.67;;;5.37;;
15412;SDS011;7805;49.554;7.632;2022-12-07T15:59:51;6.43;;;4.87;;
15412;SDS011;7805;49.554;7.632;2022-12-07T16:02:17;9.23;;;5.20;;
15412;SDS011;7805;49.554;7.632;2022-12-07T16:04:43;9.90;;;5.97;;
15412;SDS011;7805;49.554;7.632;2022-12-07T16:07:08;7.93;;;5.03;;
15412;SDS011;7805;49.554;7.632;2022-12-07T16:09:36;7.03;;;4.90;;
15412;SDS011;7805;49.554;7.632;2022-12-07T16:12:02;9.17;;;6.83;;
15412;SDS011;7805;49.554;7.632;2022-12-07T16:14:27;8.30;;;6.63;;
15412;SDS011;7805;49.554;7.632;2022-12-07T16:16:53;7.70;;;6.20;;
15412;SDS011;7805;49.554;7.632;2022-12-07T16:19:18;12.17;;;7.20;;
15412;SDS011;7805;49.554;7.632;2022-12-07T16:21:44;13.43;;;8.43;;
15412;SDS011;7805;49.554;7.632;2022-12-07T16:24:10;14.63;;;9.33;;
15412;SDS011;7805;49.554;7.632;2022-12-07T16:26:35;10.97;;;8.33;;
15412;SDS011;7805;49.554;7.632;2022-12-07T16:29:01;9.73;;;7.70;;
15412;SDS011;7805;49.554;7.632;2022-12-07T16:31:27;13.13;;;8.90;;
15412;SDS011;7805;49.554;7.632;2022-12-07T16:33:54;11.57;;;8.23;;
15412;SDS011;7805;49.554;7.632;2022-12-07T16:36:21;13.73;;;10.60;;
15412;SDS011;7805;49.554;7.632;2022-12-07T16:38:49;13.23;;;9.27;;
15412;SDS011;7805;49.554;7.632;2022-12-07T16:41:15;12.90;;;7.80;;
15412;SDS011;7805;49.554;7.632;2022-12-07T16:43:41;10.33;;;6.80;;
15412;SDS011;7805;49.554;7.632;2022-12-07T16:46:07;12.60;;;7.63;;
15412;SDS011;7805;49.554;7.632;2022-12-07T16:48:37;11.20;;;7.13;;
15412;SDS011;7805;49.554;7.632;2022-12-07T16:51:04;11.20;;;7.47;;
15412;SDS011;7805;49.554;7.632;2022-12-07T16:53:33;13.47;;;7.87;;
15412;SDS011;7805;49.554;7.632;2022-12-07T16:55:59;12.10;;;8.90;;
15412;SDS011;7805;49.554;7.632;2022-12-07T16:58:25;15.20;;;9.87;;
15412;SDS011;7805;49.554;7.632;2022-12-07T17:00:50;14.97;;;10.27;;
15412;SDS011;7805;49.554;7.632;2022-12-07T17:03:16;13.03;;;8.50;;
15412;SDS011;7805;49.554;7.632;2022-12-07T17:05:42;14.50;;;10.73;;
15412;SDS011;7805;49.554;7.632;2022-12-07T17:08:09;11.63;;;8.73;;
15412;SDS011;7805;49.554;7.632;2022-12-07T17:10:36;9.60;;;7.53;;
15412;SDS011;7805;49.554;7.632;2022-12-07T17:13:04;9.03;;;7.30;;
15412;SDS011;7805;49.554;7.632;2022-12-07T17:15:54;8.80;;;7.00;;
15412;SDS011;7805;49.554;7.632;2022-12-07T17:18:21;8.97;;;7.17;;
15412;SDS011;7805;49.554;7.632;2022-12-07T17:20:47;10.70;;;8.07;;
15412;SDS011;7805;49.554;7.632;2022-12-07T17:23:12;9.60;;;6.57;;
15412;SDS011;7805;49.554;7.632;2022-12-07T17:25:38;8.57;;;6.50;;
15412;SDS011;7805;49.554;7.632;2022-12-07T17:28:03;9.23;;;7.47;;
15412;SDS011;7805;49.554;7.632;2022-12-07T17:30:29;12.47;;;7.93;;
15412;SDS011;7805;49.554;7.632;2022-12-07T17:32:55;11.83;;;7.17;;
15412;SDS011;7805;49.554;7.632;2022-12-07T17:35:20;9.27;;;6.97;;